createdAt,value
2023-05-21T00:00:25.996Z,15.8621
2023-05-21T00:01:27.417Z,15.8912
2023-05-21T00:02:29.007Z,15.9376
2023-05-21T00:03:30.517Z,15.8074
2023-05-21T00:04:32.927Z,16.0922
2023-05-21T00:05:34.631Z,16.2026
2023-05-21T00:06:36.352Z,16.0946
2023-05-21T00:07:37.760Z,16.1458
2023-05-21T00:08:39.329Z,16.1982
2023-05-21T00:09:40.775Z,16.4349
2023-05-21T00:10:42.238Z,16.5621
2023-05-21T00:11:43.704Z,16.5293
2023-05-21T00:12:45.154Z,16.4429
2023-05-21T00:13:46.546Z,16.4084
2023-05-21T00:14:48.092Z,16.5672
2023-05-21T00:15:49.511Z,16.5962
2023-05-21T00:16:51.090Z,16.6772
2023-05-21T00:17:52.639Z,16.6304
2023-05-21T00:18:54.265Z,16.7346
2023-05-21T00:19:55.683Z,16.7597
2023-05-21T00:20:57.183Z,16.6391
2023-05-21T00:21:58.642Z,16.6033
2023-05-21T00:23:00.246Z,16.7522
2023-05-21T00:24:01.696Z,16.7330
2023-05-21T00:25:03.173Z,16.8826
2023-05-21T00:26:04.700Z,16.8837
2023-05-21T00:27:06.136Z,16.8487
2023-05-21T00:28:07.571Z,16.8237
2023-05-21T00:29:09.000Z,16.8485
2023-05-21T00:30:10.481Z,16.9728
2023-05-21T00:31:12.065Z,16.7883
2023-05-21T00:32:13.639Z,16.6984
2023-05-21T00:33:15.833Z,16.8229
2023-05-21T00:34:17.500Z,16.9197
2023-05-21T00:35:18.974Z,16.8933
2023-05-21T00:36:20.480Z,16.9509
2023-05-21T00:37:22.038Z,16.7178
2023-05-21T00:38:23.541Z,16.9134
2023-05-21T00:39:24.988Z,16.9328
2023-05-21T00:40:26.506Z,16.7669
2023-05-21T00:41:27.963Z,16.5870
2023-05-21T00:42:29.414Z,16.7193
2023-05-21T00:43:30.922Z,16.4238
2023-05-21T00:44:32.459Z,16.2536
2023-05-21T00:45:34.074Z,16.4702
2023-05-21T00:46:35.594Z,16.2565
2023-05-21T00:47:37.088Z,15.4969
2023-05-21T00:48:38.528Z,15.9827
2023-05-21T00:49:40.074Z,15.7363
2023-05-21T00:50:41.500Z,15.6749
2023-05-21T00:51:42.974Z,16.3078
2023-05-21T00:52:44.426Z,15.7515
2023-05-21T00:53:45.987Z,15.9867
2023-05-21T00:54:47.435Z,16.0373
2023-05-21T00:55:49.016Z,15.9830
2023-05-21T00:56:50.438Z,16.2929
2023-05-21T00:57:51.947Z,16.6141
2023-05-21T00:58:53.405Z,16.5836
2023-05-21T00:59:54.957Z,16.5705
2023-05-21T01:00:56.486Z,16.5977
2023-05-21T01:01:58.026Z,16.5254
2023-05-21T01:02:59.506Z,16.4588
2023-05-21T01:04:00.944Z,16.4189
2023-05-21T01:05:02.408Z,16.4170
2023-05-21T01:06:03.852Z,16.2508
2023-05-21T01:07:05.443Z,16.2302
2023-05-21T01:08:06.977Z,15.7893
2023-05-21T01:09:08.484Z,16.1752
2023-05-21T01:10:10.030Z,16.5060
2023-05-21T01:11:11.531Z,16.4929
2023-05-21T01:12:13.031Z,16.3401
2023-05-21T01:13:14.531Z,16.1146
2023-05-21T01:14:16.062Z,15.2578
2023-05-21T01:15:17.587Z,15.8129
2023-05-21T01:16:19.216Z,16.1315
2023-05-21T01:17:20.736Z,15.9971
2023-05-21T01:18:22.133Z,15.9980
2023-05-21T01:19:23.704Z,16.3986
2023-05-21T01:20:25.227Z,16.4220
2023-05-21T01:21:26.685Z,16.0606
2023-05-21T01:22:28.224Z,15.1368
2023-05-21T01:23:29.696Z,14.7145
2023-05-21T01:24:31.318Z,15.3431
2023-05-21T01:25:32.810Z,15.0010
2023-05-21T01:26:34.377Z,14.9532
2023-05-21T01:27:35.867Z,15.6564
2023-05-21T01:28:37.369Z,15.0495
2023-05-21T01:29:38.853Z,14.2638
2023-05-21T01:30:40.382Z,13.9942
2023-05-21T01:31:41.855Z,13.7913
2023-05-21T01:32:43.439Z,13.5824
2023-05-21T01:33:44.958Z,13.4194
2023-05-21T01:34:46.515Z,13.2957
2023-05-21T01:35:47.982Z,13.2190
2023-05-21T01:36:49.540Z,13.4198
2023-05-21T01:37:51.033Z,13.9574
2023-05-21T01:38:52.573Z,13.4872
2023-05-21T01:39:54.049Z,13.6449
2023-05-21T01:40:55.604Z,13.9183
2023-05-21T01:41:57.074Z,13.4909
2023-05-21T01:42:58.550Z,13.5446
2023-05-21T01:44:00.037Z,13.5167
2023-05-21T01:45:01.628Z,13.3919
2023-05-21T01:46:03.064Z,13.1325
2023-05-21T01:47:04.664Z,13.2897
2023-05-21T01:48:07.125Z,13.3112
2023-05-21T01:50:32.728Z,13.2529
2023-05-21T01:50:32.728Z,13.3311
2023-05-21T01:51:34.449Z,13.4749
2023-05-21T01:52:36.185Z,13.2316
2023-05-21T01:53:37.968Z,13.7892
2023-05-21T01:54:39.847Z,14.0367
2023-05-21T01:55:41.649Z,13.4332
2023-05-21T01:56:43.382Z,13.4792
2023-05-21T01:57:45.152Z,14.0933
2023-05-21T01:58:46.862Z,14.4694
2023-05-21T01:59:48.604Z,14.2439
2023-05-21T02:00:50.432Z,13.6701
2023-05-21T02:01:52.250Z,13.7432
2023-05-21T02:02:54.060Z,13.7182
2023-05-21T02:03:56.000Z,13.6800
2023-05-21T02:04:57.770Z,13.8993
2023-05-21T02:05:59.592Z,13.7480
2023-05-21T02:07:01.406Z,13.8897
2023-05-21T02:08:03.216Z,13.7640
2023-05-21T02:09:04.822Z,14.5043
2023-05-21T02:10:06.307Z,14.1347
2023-05-21T02:11:07.853Z,14.0672
2023-05-21T02:12:09.389Z,13.9205
2023-05-21T02:13:10.931Z,14.2445
2023-05-21T02:14:12.385Z,14.6986
2023-05-21T02:15:13.952Z,14.7772
2023-05-21T02:21:24.954Z,13.0503
2023-05-21T02:21:24.954Z,13.3918
2023-05-21T02:21:24.954Z,14.3151
2023-05-21T02:21:53.720Z,12.8126
2023-05-21T02:22:55.505Z,12.8577
2023-05-21T02:23:57.287Z,13.3461
2023-05-21T02:24:59.017Z,13.0432
2023-05-21T02:26:00.878Z,13.1816
2023-05-21T02:27:02.652Z,13.4357
2023-05-21T02:28:04.486Z,13.3253
2023-05-21T02:29:06.312Z,13.5097
2023-05-21T02:30:08.136Z,13.4229
2023-05-21T02:31:09.932Z,13.4449
2023-05-21T02:32:11.603Z,13.3936
2023-05-21T02:33:13.417Z,13.5293
2023-05-21T02:34:15.274Z,13.5130
2023-05-21T02:35:17.054Z,13.2529
2023-05-21T02:42:29.014Z,13.9434
2023-05-21T02:42:29.014Z,13.3919
2023-05-21T02:42:29.014Z,14.5457
2023-05-21T02:43:30.813Z,13.9395
2023-05-21T02:44:32.556Z,13.9266
2023-05-21T02:45:34.318Z,14.1935
2023-05-21T02:46:35.921Z,13.7848
2023-05-21T02:47:37.483Z,13.3256
2023-05-21T02:48:39.023Z,13.0159
2023-05-21T02:49:40.488Z,12.9001
2023-05-21T02:50:41.946Z,12.8912
2023-05-21T02:51:43.562Z,13.3161
2023-05-21T02:52:45.050Z,13.4789
2023-05-21T02:53:46.762Z,13.3453
2023-05-21T02:54:48.651Z,13.8514
2023-05-21T02:55:50.335Z,14.0779
2023-05-21T02:56:52.130Z,13.6956
2023-05-21T02:57:53.861Z,13.6033
2023-05-21T02:58:55.647Z,13.7980
2023-05-21T02:59:57.517Z,14.2230
2023-05-21T03:00:59.267Z,14.2742
2023-05-21T03:02:01.064Z,14.5491
2023-05-21T03:03:02.818Z,13.5082
2023-05-21T03:04:05.576Z,13.6892
2023-05-21T03:05:07.324Z,14.0873
2023-05-21T03:06:09.146Z,14.3083
2023-05-21T03:07:10.877Z,14.4945
2023-05-21T03:08:12.586Z,14.6164
2023-05-21T03:09:14.370Z,13.6784
2023-05-21T03:10:16.122Z,13.1277
2023-05-21T03:11:17.795Z,13.1331
2023-05-21T03:12:20.469Z,13.3799
2023-05-21T03:13:21.894Z,13.1283
2023-05-21T03:14:24.378Z,12.9737
2023-05-21T03:15:26.008Z,12.6816
2023-05-21T03:16:27.465Z,12.5862
2023-05-21T03:17:28.990Z,12.8079
2023-05-21T03:18:31.681Z,13.8311
2023-05-21T03:19:33.539Z,14.1516
2023-05-21T03:20:36.216Z,14.3245
2023-05-21T03:21:37.942Z,14.3702
2023-05-21T03:22:39.722Z,13.9904
2023-05-21T03:23:41.473Z,14.0775
2023-05-21T03:24:43.194Z,13.4723
2023-05-21T03:25:44.955Z,13.6848
2023-05-21T03:33:00.966Z,14.4869
2023-05-21T03:33:00.966Z,14.0404
2023-05-21T03:33:00.966Z,13.6891
2023-05-21T03:33:59.346Z,12.7565
2023-05-21T03:35:01.149Z,13.4079
2023-05-21T03:36:02.923Z,12.8835
2023-05-21T03:37:04.765Z,12.7462
2023-05-21T03:38:06.542Z,12.9463
2023-05-21T03:39:08.279Z,12.9559
2023-05-21T03:40:10.080Z,12.6463
2023-05-21T03:41:11.941Z,12.5115
2023-05-21T03:42:13.641Z,12.5772
2023-05-21T03:43:15.413Z,12.3867
2023-05-21T03:44:17.084Z,12.4413
2023-05-21T03:45:18.598Z,13.0779
2023-05-21T03:46:20.254Z,12.6576
2023-05-21T03:47:21.908Z,12.6024
2023-05-21T03:48:23.446Z,12.6606
2023-05-21T03:49:25.048Z,12.5652
2023-05-21T03:50:26.552Z,12.5919
2023-05-21T03:51:28.127Z,12.6123
2023-05-21T03:52:29.572Z,12.7402
2023-05-21T03:53:30.987Z,12.5977
2023-05-21T03:54:32.478Z,12.7999
2023-05-21T03:55:34.103Z,12.9139
2023-05-21T03:56:35.763Z,12.7552
2023-05-21T03:57:37.419Z,13.4017
2023-05-21T03:58:39.278Z,12.9568
2023-05-21T03:59:41.007Z,12.9131
2023-05-21T04:00:42.866Z,13.3176
2023-05-21T04:01:44.691Z,13.4453
2023-05-21T04:02:46.566Z,12.9027
2023-05-21T04:03:48.544Z,12.7522
2023-05-21T04:04:50.547Z,12.9150
2023-05-21T04:05:52.260Z,12.7064
2023-05-21T04:06:54.089Z,12.4888
2023-05-21T04:07:55.823Z,13.1575
2023-05-21T04:08:57.673Z,12.9116
2023-05-21T04:09:59.214Z,12.6066
2023-05-21T04:11:00.913Z,13.1826
2023-05-21T04:12:02.659Z,13.4501
2023-05-21T04:13:04.405Z,13.7515
2023-05-21T04:14:06.192Z,13.9692
2023-05-21T04:15:08.003Z,14.0936
2023-05-21T04:16:09.810Z,13.9591
2023-05-21T04:17:11.537Z,13.0452
2023-05-21T04:18:13.342Z,13.2087
2023-05-21T04:19:15.070Z,13.6416
2023-05-21T04:20:16.842Z,13.4489
2023-05-21T04:21:18.604Z,13.0475
2023-05-21T04:22:20.452Z,13.4223
2023-05-21T04:23:22.199Z,13.4261
2023-05-21T04:24:23.969Z,13.1541
2023-05-21T04:25:25.796Z,12.8850
2023-05-21T04:26:27.582Z,13.0148
2023-05-21T04:27:29.370Z,13.2792
2023-05-21T04:28:31.172Z,12.8558
2023-05-21T04:29:32.933Z,12.5868
2023-05-21T04:30:34.748Z,13.4572
2023-05-21T04:31:36.523Z,13.2866
2023-05-21T04:32:38.251Z,13.0583
2023-05-21T04:33:39.965Z,13.5986
2023-05-21T04:34:41.674Z,13.4897
2023-05-21T04:35:43.296Z,13.3847
2023-05-21T04:36:45.067Z,13.5950
2023-05-21T04:37:46.691Z,13.2912
2023-05-21T04:38:48.367Z,13.1440
2023-05-21T04:39:49.969Z,12.8484
2023-05-21T04:40:51.703Z,12.7592
2023-05-21T04:41:53.463Z,12.6761
2023-05-21T04:42:55.310Z,13.0905
2023-05-21T04:43:57.101Z,12.7981
2023-05-21T04:44:58.819Z,13.2829
2023-05-21T04:46:00.661Z,13.4358
2023-05-21T04:47:02.575Z,12.9138
2023-05-21T04:48:04.452Z,12.9819
2023-05-21T04:49:20.344Z,13.6783
2023-05-21T04:50:09.191Z,13.7683
2023-05-21T04:51:10.969Z,13.7633
2023-05-21T04:52:12.774Z,13.4031
2023-05-21T04:53:14.553Z,13.1430
2023-05-21T04:54:16.383Z,12.8183
2023-05-21T04:55:18.113Z,13.2457
2023-05-21T04:56:19.909Z,12.7088
2023-05-21T04:57:21.628Z,12.7205
2023-05-21T04:58:23.396Z,13.1922
2023-05-21T04:59:24.838Z,12.7586
2023-05-21T05:00:26.396Z,13.3330
2023-05-21T05:01:27.942Z,13.7363
2023-05-21T05:02:29.551Z,13.1148
2023-05-21T05:03:31.196Z,12.9494
2023-05-21T05:04:32.700Z,13.2870
2023-05-21T05:05:34.539Z,13.4568
2023-05-21T05:06:36.241Z,13.6198
2023-05-21T05:07:37.864Z,13.5220
2023-05-21T05:08:39.393Z,13.3707
2023-05-21T05:09:40.893Z,14.0319
2023-05-21T05:10:42.350Z,13.9620
2023-05-21T05:11:43.777Z,13.7582
2023-05-21T05:12:45.226Z,14.1338
2023-05-21T05:13:46.765Z,14.1648
2023-05-21T05:14:48.316Z,14.4351
2023-05-21T05:15:51.010Z,14.4101
2023-05-21T05:16:50.188Z,14.4759
2023-05-21T05:17:51.676Z,14.4092
2023-05-21T05:18:53.256Z,14.4580
2023-05-21T05:19:55.249Z,14.5638
2023-05-21T05:20:57.052Z,14.6934
2023-05-21T05:21:58.828Z,14.7453
2023-05-21T05:23:00.567Z,14.6873
2023-05-21T05:24:02.383Z,14.5575
2023-05-21T05:25:03.933Z,14.4832
2023-05-21T05:26:05.439Z,13.8202
2023-05-21T05:27:07.043Z,14.3676
2023-05-21T05:28:08.519Z,14.2444
2023-05-21T05:29:10.034Z,14.4725
2023-05-21T05:30:11.727Z,14.1548
2023-05-21T05:31:13.552Z,14.1011
2023-05-21T05:32:15.274Z,13.6940
2023-05-21T05:33:17.094Z,12.9455
2023-05-21T05:34:18.888Z,12.8243
2023-05-21T05:35:20.646Z,12.8813
2023-05-21T05:36:22.461Z,13.1967
2023-05-21T05:37:24.585Z,13.6243
2023-05-21T05:39:44.159Z,13.3894
2023-05-21T05:40:29.892Z,12.9958
2023-05-21T05:41:31.897Z,13.1043
2023-05-21T05:42:33.727Z,13.4266
2023-05-21T05:43:35.555Z,13.0277
2023-05-21T05:44:37.262Z,12.9331
2023-05-21T05:45:39.410Z,13.0983
2023-05-21T05:46:42.411Z,13.2145
2023-05-21T05:47:44.399Z,12.8585
2023-05-21T05:48:46.160Z,13.0469
2023-05-21T05:49:47.946Z,13.3317
2023-05-21T05:50:49.693Z,12.8206
2023-05-21T05:51:51.207Z,12.6833
2023-05-21T05:52:52.945Z,12.9368
2023-05-21T05:53:55.423Z,13.0645
2023-05-21T05:54:57.034Z,13.2820
2023-05-21T05:55:58.615Z,12.7966
2023-05-21T05:57:00.201Z,12.6640
2023-05-21T05:58:01.972Z,12.9099
2023-05-21T05:59:03.481Z,13.1473
2023-05-21T06:00:05.126Z,13.0593
2023-05-21T06:01:06.682Z,12.9185
2023-05-21T06:02:08.214Z,12.7049
2023-05-21T06:03:11.063Z,12.7874
2023-05-21T06:04:18.230Z,12.7128
2023-05-21T06:07:51.861Z,13.3207
2023-05-21T06:07:51.861Z,12.9751
2023-05-21T06:08:30.437Z,13.4882
2023-05-21T06:09:31.872Z,13.0971
2023-05-21T06:10:33.325Z,12.9153
2023-05-21T06:11:34.882Z,12.7586
2023-05-21T06:12:36.386Z,13.0834
2023-05-21T06:13:37.896Z,12.7647
2023-05-21T06:14:39.394Z,13.0451
2023-05-21T06:15:41.071Z,13.4443
2023-05-21T06:16:42.705Z,13.5065
2023-05-21T06:17:44.278Z,13.6809
2023-05-21T06:18:46.153Z,13.4876
2023-05-21T06:19:47.897Z,13.6501
2023-05-21T06:20:49.922Z,13.4446
2023-05-21T06:21:51.776Z,13.2227
2023-05-21T06:22:53.542Z,12.9570
2023-05-21T06:23:55.287Z,13.4803
2023-05-21T06:24:56.999Z,13.0501
2023-05-21T06:25:58.804Z,13.5335
2023-05-21T06:27:00.567Z,13.3129
2023-05-21T06:28:02.380Z,13.2638
2023-05-21T06:29:15.573Z,13.2295
2023-05-21T06:30:04.201Z,13.0856
2023-05-21T06:31:05.946Z,13.1785
2023-05-21T06:32:07.771Z,13.1841
2023-05-21T06:33:09.605Z,12.9448
2023-05-21T06:34:11.363Z,12.8157
2023-05-21T06:35:13.221Z,12.9335
2023-05-21T06:36:14.961Z,13.4237
2023-05-21T06:37:16.728Z,13.1519
2023-05-21T06:38:18.617Z,13.2948
2023-05-21T06:39:20.289Z,13.5493
2023-05-21T06:40:22.047Z,13.5992
2023-05-21T06:41:23.769Z,13.0031
2023-05-21T06:42:25.594Z,13.0071
2023-05-21T06:43:27.413Z,13.0282
2023-05-21T06:44:29.189Z,12.9001
2023-05-21T06:45:30.986Z,13.1759
2023-05-21T06:46:32.879Z,13.2023
2023-05-21T06:47:34.619Z,12.9570
2023-05-21T06:48:37.422Z,13.1727
2023-05-21T06:49:39.249Z,13.5118
2023-05-21T06:50:41.062Z,13.7308
2023-05-21T06:51:42.849Z,14.0313
2023-05-21T06:52:44.584Z,13.9766
2023-05-21T06:53:46.350Z,14.2141
2023-05-21T06:54:48.099Z,13.8799
2023-05-21T06:55:49.854Z,13.8797
2023-05-21T06:56:51.603Z,13.7489
2023-05-21T06:57:53.418Z,13.7762
2023-05-21T06:58:55.183Z,14.1457
2023-05-21T06:59:56.905Z,14.2513
2023-05-21T07:00:58.673Z,14.3356
2023-05-21T07:02:01.378Z,14.4271
2023-05-21T07:03:01.527Z,14.6878
2023-05-21T07:04:03.333Z,14.5117
2023-05-21T07:05:05.059Z,14.6462
2023-05-21T07:06:06.854Z,14.7569
2023-05-21T07:07:08.604Z,15.0102
2023-05-21T07:08:12.010Z,15.0843
2023-05-21T07:09:10.716Z,15.0265
2023-05-21T07:10:12.529Z,14.7571
2023-05-21T07:11:14.233Z,14.7700
2023-05-21T07:12:16.066Z,15.0204
2023-05-21T07:13:17.812Z,15.0508
2023-05-21T07:14:19.591Z,14.6897
2023-05-21T07:15:21.431Z,15.1808
2023-05-21T07:16:23.284Z,15.0897
2023-05-21T07:17:25.022Z,15.1668
2023-05-21T07:18:26.804Z,15.2330
2023-05-21T07:19:28.581Z,15.4999
2023-05-21T07:20:30.398Z,15.4045
2023-05-21T07:21:32.187Z,15.4355
2023-05-21T07:22:33.960Z,15.4619
2023-05-21T07:23:35.676Z,15.0183
2023-05-21T07:24:37.439Z,15.1290
2023-05-21T07:25:39.334Z,15.5292
2023-05-21T07:26:41.109Z,15.5458
2023-05-21T07:27:42.833Z,15.6270
2023-05-21T07:28:44.273Z,15.7602
2023-05-21T07:29:45.755Z,15.5177
2023-05-21T07:30:47.250Z,15.2555
2023-05-21T07:31:48.805Z,15.3834
2023-05-21T07:32:50.378Z,15.8262
2023-05-21T07:33:51.822Z,15.7946
2023-05-21T07:34:54.446Z,15.7748
2023-05-21T07:35:54.288Z,15.6576
2023-05-21T07:36:55.702Z,15.6581
2023-05-21T07:37:57.253Z,15.1060
2023-05-21T07:38:58.846Z,15.3928
2023-05-21T07:40:00.410Z,15.8277
2023-05-21T07:41:01.875Z,15.8641
2023-05-21T07:42:03.451Z,15.8015
2023-05-21T07:43:04.905Z,15.8598
2023-05-21T07:44:06.487Z,15.6832
2023-05-21T07:45:08.023Z,15.9157
2023-05-21T07:46:09.589Z,16.0324
2023-05-21T07:47:11.187Z,15.9962
2023-05-21T07:48:12.659Z,16.0996
2023-05-21T07:49:14.181Z,16.1753
2023-05-21T07:50:15.719Z,16.4001
2023-05-21T07:51:17.165Z,16.2833
2023-05-21T07:52:18.816Z,16.3599
2023-05-21T07:53:20.306Z,16.5539
2023-05-21T07:54:21.969Z,16.3636
2023-05-21T07:55:23.462Z,15.9184
2023-05-21T07:56:24.988Z,15.8301
2023-05-21T07:57:26.485Z,15.9918
2023-05-21T07:58:28.035Z,16.2700
2023-05-21T07:59:29.528Z,16.1777
2023-05-21T08:00:31.096Z,16.2247
2023-05-21T08:01:32.632Z,16.1876
2023-05-21T08:02:34.193Z,16.0537
2023-05-21T08:03:35.753Z,16.1452
2023-05-21T08:04:39.258Z,16.2152
2023-05-21T08:05:39.384Z,16.1363
2023-05-21T08:06:40.941Z,16.1852
2023-05-21T08:07:43.509Z,16.4220
2023-05-21T08:08:44.961Z,16.2984
2023-05-21T08:09:46.454Z,16.0547
2023-05-21T08:10:47.998Z,16.0118
2023-05-21T08:11:49.571Z,16.1489
2023-05-21T08:12:51.205Z,16.0474
2023-05-21T08:13:52.679Z,16.2570
2023-05-21T08:14:54.112Z,16.4125
2023-05-21T08:15:55.618Z,16.2443
2023-05-21T08:16:57.074Z,16.2645
2023-05-21T08:17:58.676Z,16.0057
2023-05-21T08:19:00.154Z,15.6767
2023-05-21T08:20:01.623Z,15.8602
2023-05-21T08:21:03.247Z,16.3041
2023-05-21T08:22:04.725Z,16.4406
2023-05-21T08:23:06.182Z,16.4297
2023-05-21T08:24:07.693Z,16.2297
2023-05-21T08:25:09.155Z,16.2744
2023-05-21T08:26:10.675Z,16.5560
2023-05-21T08:27:12.210Z,16.4180
2023-05-21T08:28:13.728Z,16.2277
2023-05-21T08:29:15.254Z,16.2004
2023-05-21T08:30:16.722Z,15.9989
2023-05-21T08:31:18.196Z,16.3489
2023-05-21T08:32:19.712Z,16.4563
2023-05-21T08:33:21.628Z,16.7318
2023-05-21T08:34:24.157Z,16.8347
2023-05-21T08:35:25.674Z,16.9306
2023-05-21T08:36:27.147Z,16.7297
2023-05-21T08:37:29.701Z,17.1157
2023-05-21T08:38:31.332Z,17.0958
2023-05-21T08:39:32.789Z,17.0973
2023-05-21T08:40:34.382Z,16.8783
2023-05-21T08:41:35.839Z,17.0362
2023-05-21T08:42:37.810Z,16.7573
2023-05-21T08:43:39.323Z,16.9228
2023-05-21T08:44:40.897Z,17.0734
2023-05-21T08:45:42.429Z,17.0132
2023-05-21T08:46:44.252Z,17.4237
2023-05-21T08:47:45.752Z,17.3971
2023-05-21T08:48:47.341Z,17.4430
2023-05-21T08:49:48.880Z,17.5636
2023-05-21T08:50:50.547Z,17.4287
2023-05-21T08:51:52.079Z,17.4768
2023-05-21T08:52:53.678Z,17.5861
2023-05-21T08:53:55.232Z,17.6848
2023-05-21T08:54:56.858Z,17.5998
2023-05-21T08:55:58.362Z,17.6099
2023-05-21T08:56:59.926Z,17.8487
2023-05-21T08:58:01.592Z,17.7581
2023-05-21T08:59:03.137Z,17.8229
2023-05-21T09:00:04.598Z,17.9402
2023-05-21T09:01:06.212Z,17.7928
2023-05-21T09:02:07.615Z,17.8103
2023-05-21T09:03:09.274Z,17.4717
2023-05-21T09:04:20.323Z,17.3770
2023-05-21T09:05:12.566Z,17.4315
2023-05-21T09:06:14.152Z,17.3238
2023-05-21T09:07:15.662Z,17.3458
2023-05-21T09:08:17.270Z,17.4103
2023-05-21T09:09:18.934Z,17.4329
2023-05-21T09:10:20.558Z,17.3023
2023-05-21T09:11:22.074Z,17.6664
2023-05-21T09:12:23.540Z,17.4198
2023-05-21T09:13:25.054Z,17.6811
2023-05-21T09:14:26.518Z,17.6742
2023-05-21T09:15:28.039Z,17.8726
2023-05-21T09:16:29.589Z,17.6889
2023-05-21T09:17:31.185Z,18.0223
2023-05-21T09:18:32.659Z,17.9637
2023-05-21T09:19:34.374Z,18.0852
2023-05-21T09:20:35.890Z,18.0401
2023-05-21T09:21:37.509Z,18.1184
2023-05-21T09:22:39.085Z,18.2951
2023-05-21T09:23:40.721Z,18.1015
2023-05-21T09:24:42.238Z,18.1797
2023-05-21T09:25:43.796Z,18.2653
2023-05-21T09:26:45.289Z,18.3392
2023-05-21T09:27:46.769Z,18.5046
2023-05-21T09:28:48.245Z,18.2662
2023-05-21T09:29:49.763Z,18.5563
2023-05-21T09:30:51.251Z,18.5156
2023-05-21T09:31:52.902Z,18.6431
2023-05-21T09:32:55.246Z,18.5980
2023-05-21T09:33:56.653Z,18.5061
2023-05-21T09:34:58.181Z,18.5970
2023-05-21T09:35:59.832Z,18.6912
2023-05-21T09:37:01.391Z,18.4400
2023-05-21T09:38:02.864Z,18.6013
2023-05-21T09:39:04.642Z,18.5288
2023-05-21T09:40:06.070Z,18.3647
2023-05-21T09:41:07.577Z,18.0577
2023-05-21T09:42:09.141Z,18.2509
2023-05-21T09:43:10.731Z,18.4819
2023-05-21T09:44:12.312Z,18.6267
2023-05-21T09:45:13.800Z,18.7783
2023-05-21T09:46:16.113Z,18.9016
2023-05-21T09:47:17.668Z,18.9989
2023-05-21T09:48:19.172Z,19.0013
2023-05-21T09:49:21.840Z,18.7013
2023-05-21T09:50:22.534Z,18.9059
2023-05-21T09:51:24.011Z,19.1622
2023-05-21T09:52:25.561Z,19.0260
2023-05-21T09:53:27.104Z,19.1650
2023-05-21T09:54:28.705Z,19.0751
2023-05-21T09:55:30.156Z,19.0877
2023-05-21T09:56:31.601Z,19.1268
2023-05-21T09:57:33.105Z,19.4061
2023-05-21T09:58:34.533Z,19.2876
2023-05-21T09:59:36.082Z,19.2802
2023-05-21T10:00:41.363Z,19.2834
2023-05-21T10:01:39.555Z,19.3153
2023-05-21T10:02:41.039Z,19.0326
2023-05-21T10:03:42.542Z,19.1241
2023-05-21T10:04:44.137Z,19.2003
2023-05-21T10:05:45.681Z,19.3804
2023-05-21T10:06:47.109Z,19.4427
2023-05-21T10:07:48.598Z,19.7185
2023-05-21T10:08:50.047Z,19.7544
2023-05-21T10:09:51.512Z,20.0111
2023-05-21T10:10:53.046Z,20.1528
2023-05-21T10:11:54.579Z,20.1627
2023-05-21T10:12:56.103Z,20.0844
2023-05-21T10:13:57.560Z,20.0906
2023-05-21T10:14:59.000Z,19.9767
2023-05-21T10:16:00.514Z,20.3022
2023-05-21T10:17:01.932Z,20.4262
2023-05-21T10:18:03.539Z,20.4567
2023-05-21T10:19:05.087Z,20.1169
2023-05-21T10:20:06.518Z,20.3211
2023-05-21T10:21:07.952Z,20.2974
2023-05-21T10:22:09.436Z,20.2842
2023-05-21T10:23:10.946Z,20.5308
2023-05-21T10:24:12.364Z,20.4509
2023-05-21T10:25:13.806Z,20.6195
2023-05-21T10:26:15.246Z,20.7069
2023-05-21T10:27:16.684Z,20.6615
2023-05-21T10:28:18.145Z,20.5704
2023-05-21T10:29:19.945Z,20.4854
2023-05-21T10:30:21.382Z,20.5907
2023-05-21T10:31:22.832Z,20.5601
2023-05-21T10:32:24.401Z,20.5082
2023-05-21T10:33:25.935Z,20.6083
2023-05-21T10:34:27.325Z,20.7509
2023-05-21T10:35:28.789Z,20.8967
2023-05-21T10:36:30.248Z,20.6128
2023-05-21T10:37:31.705Z,20.4091
2023-05-21T10:38:33.169Z,20.1729
2023-05-21T10:39:34.635Z,20.5377
2023-05-21T10:40:37.059Z,20.7012
2023-05-21T10:41:38.756Z,20.8491
2023-05-21T10:42:40.395Z,20.9687
2023-05-21T10:43:42.092Z,21.0021
2023-05-21T10:44:43.508Z,20.8726
2023-05-21T10:45:45.043Z,21.1325
2023-05-21T10:46:46.540Z,20.6040
2023-05-21T10:47:48.059Z,21.0826
2023-05-21T10:48:50.604Z,21.3239
2023-05-21T10:49:52.129Z,21.4829
2023-05-21T10:50:53.597Z,21.2768
2023-05-21T10:51:55.122Z,21.6794
2023-05-21T10:52:56.640Z,21.2249
2023-05-21T10:53:58.139Z,21.0153
2023-05-21T10:54:59.689Z,21.2884
2023-05-21T10:56:01.128Z,21.3962
2023-05-21T10:57:02.692Z,21.3135
2023-05-21T10:58:04.290Z,21.2083
2023-05-21T10:59:05.761Z,21.5528
2023-05-21T11:00:07.347Z,21.5262
2023-05-21T11:01:08.940Z,21.3237
2023-05-21T11:02:10.523Z,21.5238
2023-05-21T11:03:12.036Z,21.4100
2023-05-21T11:04:13.554Z,21.7575
2023-05-21T11:05:15.055Z,21.7438
2023-05-21T11:06:16.618Z,21.6066
2023-05-21T11:07:18.085Z,21.5749
2023-05-21T11:08:19.610Z,21.4123
2023-05-21T11:09:21.103Z,21.2727
2023-05-21T11:10:22.664Z,21.7152
2023-05-21T11:11:24.140Z,21.8692
2023-05-21T11:12:25.724Z,21.9217
2023-05-21T11:13:27.265Z,22.1288
2023-05-21T11:14:28.803Z,22.1000
2023-05-21T11:15:30.288Z,22.2227
2023-05-21T11:16:31.811Z,21.8318
2023-05-21T11:17:33.272Z,21.8661
2023-05-21T11:18:34.815Z,21.7262
2023-05-21T11:19:36.659Z,21.5784
2023-05-21T11:20:38.463Z,21.9388
2023-05-21T11:21:40.058Z,21.8960
2023-05-21T11:22:41.660Z,22.1442
2023-05-21T11:23:43.196Z,22.3616
2023-05-21T11:24:44.959Z,22.5783
2023-05-21T11:25:46.505Z,22.5826
2023-05-21T11:26:47.955Z,22.6934
2023-05-21T11:27:49.467Z,22.6773
2023-05-21T11:28:50.950Z,22.3487
2023-05-21T11:29:52.453Z,22.5072
2023-05-21T11:30:54.046Z,22.6842
2023-05-21T11:31:55.521Z,22.5405
2023-05-21T11:32:57.166Z,22.7678
2023-05-21T11:33:58.935Z,22.8551
2023-05-21T11:35:00.765Z,22.8623
2023-05-21T11:36:02.446Z,22.8007
2023-05-21T11:37:04.081Z,22.9903
2023-05-21T11:38:05.567Z,23.0197
2023-05-21T11:39:07.134Z,23.1898
2023-05-21T11:40:08.791Z,23.1030
2023-05-21T11:41:10.234Z,23.3043
2023-05-21T11:42:11.679Z,23.4938
2023-05-21T11:43:13.138Z,23.7092
2023-05-21T11:45:49.170Z,23.7724
2023-05-21T11:46:50.736Z,23.1094
2023-05-21T11:47:52.197Z,23.1888
2023-05-21T11:48:53.661Z,23.4757
2023-05-21T11:49:55.183Z,23.8805
2023-05-21T11:50:56.727Z,23.9930
2023-05-21T11:51:58.158Z,24.2241
2023-05-21T11:52:59.934Z,24.1847
2023-05-21T11:54:01.587Z,24.2654
2023-05-21T11:55:03.009Z,24.2404
2023-05-21T11:56:04.511Z,23.8911
2023-05-21T11:57:06.127Z,24.4412
2023-05-21T11:58:07.570Z,24.4739
2023-05-21T11:59:09.083Z,24.2578
2023-05-21T12:00:10.617Z,24.3453
2023-05-21T12:01:12.123Z,24.4283
2023-05-21T12:02:13.651Z,24.4076
2023-05-21T12:03:15.458Z,24.4079
2023-05-21T12:04:16.961Z,24.8295
2023-05-21T12:05:18.692Z,24.8832
2023-05-21T12:06:20.401Z,24.7793
2023-05-21T12:07:21.870Z,24.6164
2023-05-21T12:08:23.316Z,25.1902
2023-05-21T12:09:24.962Z,25.3108
2023-05-21T12:10:26.441Z,25.0806
2023-05-21T12:11:28.253Z,25.1607
2023-05-21T12:12:41.828Z,25.5241
2023-05-21T12:13:30.562Z,25.6854
2023-05-21T12:14:32.068Z,25.7075
2023-05-21T12:17:15.676Z,25.7968
2023-05-21T12:17:35.373Z,25.2903
2023-05-21T12:18:36.835Z,25.4540
2023-05-21T12:19:38.285Z,25.6204
2023-05-21T12:20:39.798Z,25.3734
2023-05-21T12:21:41.355Z,25.9524
2023-05-21T12:22:42.883Z,25.1303
2023-05-21T12:23:44.374Z,25.7324
2023-05-21T12:24:45.895Z,25.8345
2023-05-21T12:25:47.400Z,25.5430
2023-05-21T12:26:48.816Z,25.3139
2023-05-21T12:27:50.383Z,25.3534
2023-05-21T12:28:51.894Z,25.4451
2023-05-21T12:29:53.401Z,25.9073
2023-05-21T12:30:54.965Z,25.8090
2023-05-21T12:31:56.484Z,25.6811
2023-05-21T12:32:58.044Z,25.6989
2023-05-21T12:35:01.262Z,25.8959
2023-05-21T12:36:02.761Z,26.0943
2023-05-21T12:37:04.370Z,26.1764
2023-05-21T12:38:05.783Z,26.3120
2023-05-21T12:39:08.421Z,26.0853
2023-05-21T12:40:08.116Z,25.7904
2023-05-21T12:41:09.612Z,25.8828
2023-05-21T12:42:11.085Z,25.7677